createdAt,value
2023-04-09T00:01:43.958Z,57.04
2023-04-09T00:04:10.618Z,56.98
2023-04-09T00:06:37.277Z,57.08
2023-04-09T00:09:03.833Z,57.10
2023-04-09T00:11:30.389Z,57.12
2023-04-09T00:13:58.439Z,56.78
2023-04-09T00:16:25.050Z,57.29
2023-04-09T00:18:51.809Z,57.09
2023-04-09T00:21:18.561Z,57.27
2023-04-09T00:23:45.421Z,57.07
2023-04-09T00:26:12.131Z,56.94
2023-04-09T00:28:38.684Z,57.13
2023-04-09T00:31:05.661Z,57.15
2023-04-09T00:33:32.265Z,56.92
2023-04-09T00:35:58.862Z,56.84
2023-04-09T00:38:25.388Z,56.80
2023-04-09T00:40:51.981Z,56.76
2023-04-09T00:43:18.507Z,56.94
2023-04-09T00:45:45.553Z,57.11
2023-04-09T00:48:16.553Z,57.10
2023-04-09T00:50:43.270Z,57.39
2023-04-09T00:53:10.842Z,57.17
2023-04-09T00:55:40.135Z,57.74
2023-04-09T00:58:06.903Z,57.64
2023-04-09T01:00:33.576Z,58.17
2023-04-09T01:03:00.946Z,57.75
2023-04-09T01:05:54.608Z,58.19
2023-04-09T01:08:39.315Z,57.89
2023-04-09T01:11:28.428Z,57.96
2023-04-09T01:14:19.978Z,58.25
2023-04-09T01:16:49.722Z,57.98
2023-04-09T01:19:53.367Z,57.82
2023-04-09T01:22:29.502Z,58.03
2023-04-09T01:25:26.624Z,57.84
2023-04-09T01:28:17.517Z,57.82
2023-04-09T01:30:47.710Z,57.61
2023-04-09T01:33:15.472Z,57.51
2023-04-09T01:35:47.201Z,57.53
2023-04-09T01:38:14.572Z,57.46
2023-04-09T01:40:41.607Z,57.40
2023-04-09T01:43:08.776Z,57.19
2023-04-09T01:45:35.342Z,57.21
2023-04-09T01:48:03.114Z,56.84
2023-04-09T01:50:29.896Z,56.65
2023-04-09T01:52:56.941Z,56.46
2023-04-09T01:55:23.513Z,56.41
2023-04-09T01:57:50.299Z,56.47
2023-04-09T02:00:17.090Z,56.56
2023-04-09T02:02:55.332Z,56.57
2023-04-09T02:05:27.025Z,56.35
2023-04-09T02:07:56.537Z,56.88
2023-04-09T02:10:24.872Z,56.73
2023-04-09T02:12:52.774Z,56.70
2023-04-09T02:15:20.458Z,56.63
2023-04-09T02:17:47.201Z,56.74
2023-04-09T02:20:19.925Z,56.88
2023-04-09T02:22:46.968Z,56.72
2023-04-09T02:25:13.502Z,56.99
2023-04-09T02:27:40.218Z,56.43
2023-04-09T02:30:07.417Z,57.06
2023-04-09T02:32:34.545Z,57.23
2023-04-09T02:35:01.110Z,57.11
2023-04-09T02:37:27.892Z,57.13
2023-04-09T02:39:54.500Z,57.23
2023-04-09T02:42:21.811Z,57.34
2023-04-09T02:44:48.393Z,57.50
2023-04-09T02:47:15.243Z,57.72
2023-04-09T02:49:41.837Z,57.67
2023-04-09T02:52:10.515Z,57.65
2023-04-09T02:54:37.134Z,57.42
2023-04-09T02:57:03.966Z,57.68
2023-04-09T02:59:32.880Z,59.51
2023-04-09T03:01:59.765Z,58.55
2023-04-09T03:04:26.441Z,59.03
2023-04-09T03:06:53.316Z,60.89
2023-04-09T03:09:19.828Z,61.49
2023-04-09T03:11:46.668Z,61.31
2023-04-09T03:14:13.193Z,60.19
2023-04-09T03:16:40.052Z,61.28
2023-04-09T03:19:06.549Z,61.33
2023-04-09T03:21:33.427Z,60.50
2023-04-09T03:24:00.143Z,59.89
2023-04-09T03:26:26.720Z,59.81
2023-04-09T03:28:53.485Z,59.52
2023-04-09T03:31:20.400Z,60.05
2023-04-09T03:33:47.039Z,61.33
2023-04-09T03:36:13.520Z,60.38
2023-04-09T03:38:40.033Z,59.71
2023-04-09T03:41:06.569Z,59.08
2023-04-09T03:43:33.084Z,59.20
2023-04-09T03:45:59.547Z,58.97
2023-04-09T03:48:26.091Z,59.28
2023-04-09T03:50:53.884Z,58.52
2023-04-09T03:53:20.524Z,58.52
2023-04-09T03:55:47.117Z,60.44
2023-04-09T03:58:13.617Z,59.59
2023-04-09T04:00:40.227Z,59.68
2023-04-09T04:03:07.169Z,59.35
2023-04-09T04:05:33.755Z,58.88
2023-04-09T04:08:00.704Z,59.13
2023-04-09T04:10:27.225Z,58.56
2023-04-09T04:12:53.813Z,58.39
2023-04-09T04:15:20.359Z,58.52
2023-04-09T04:17:46.944Z,58.22
2023-04-09T04:20:13.519Z,57.37
2023-04-09T04:22:40.178Z,58.05
2023-04-09T04:25:07.016Z,57.75
2023-04-09T04:27:33.703Z,57.96
2023-04-09T04:30:02.090Z,58.06
2023-04-09T04:32:29.342Z,57.91
2023-04-09T04:34:55.849Z,57.66
2023-04-09T04:37:22.623Z,57.71
2023-04-09T04:39:49.110Z,57.27
2023-04-09T04:42:15.634Z,57.37
2023-04-09T04:44:42.798Z,57.34
2023-04-09T04:47:09.484Z,57.54
2023-04-09T04:49:35.977Z,58.61
2023-04-09T04:52:02.528Z,57.96
2023-04-09T04:54:29.012Z,57.33
2023-04-09T04:56:56.349Z,56.89
2023-04-09T04:59:22.941Z,56.54
2023-04-09T05:01:49.691Z,56.36
2023-04-09T05:04:16.225Z,56.14
2023-04-09T05:06:42.724Z,56.34
2023-04-09T05:09:09.305Z,56.70
2023-04-09T05:11:35.832Z,56.26
2023-04-09T05:14:02.322Z,56.17
2023-04-09T05:16:28.822Z,56.13
2023-04-09T05:18:55.466Z,56.53
2023-04-09T05:21:22.072Z,56.29
2023-04-09T05:23:48.550Z,55.90
2023-04-09T05:26:15.558Z,56.17
2023-04-09T05:28:42.060Z,57.12
2023-04-09T05:31:13.325Z,57.15
2023-04-09T05:33:40.240Z,56.59
2023-04-09T05:36:07.244Z,57.03
2023-04-09T05:38:34.315Z,57.14
2023-04-09T05:41:01.044Z,56.76
2023-04-09T05:43:27.749Z,56.75
2023-04-09T05:45:54.344Z,56.41
2023-04-09T05:48:21.186Z,56.11
2023-04-09T05:50:55.777Z,56.57
2023-04-09T05:53:23.181Z,56.75
2023-04-09T05:55:49.710Z,56.15
2023-04-09T05:58:16.570Z,55.57
2023-04-09T06:00:43.066Z,55.92
2023-04-09T06:03:09.964Z,55.41
2023-04-09T06:05:36.807Z,56.00
2023-04-09T06:08:03.494Z,55.44
2023-04-09T06:10:32.743Z,55.54
2023-04-09T06:12:59.217Z,54.63
2023-04-09T06:15:25.908Z,54.76
2023-04-09T06:17:52.436Z,54.60
2023-04-09T06:20:19.097Z,54.36
2023-04-09T06:22:45.973Z,54.20
2023-04-09T06:25:12.507Z,54.16
2023-04-09T06:27:39.120Z,54.63
2023-04-09T06:30:06.538Z,53.86
2023-04-09T06:32:35.579Z,53.68
2023-04-09T06:35:11.090Z,53.84
2023-04-09T06:37:37.761Z,53.88
2023-04-09T06:40:04.752Z,53.62
2023-04-09T06:42:31.244Z,53.74
2023-04-09T06:44:57.765Z,53.21
2023-04-09T06:47:24.442Z,53.59
2023-04-09T06:49:51.245Z,52.95
2023-04-09T06:52:17.792Z,52.82
2023-04-09T06:54:44.382Z,53.29
2023-04-09T06:57:10.959Z,53.56
2023-04-09T06:59:37.424Z,53.71
2023-04-09T07:02:04.012Z,52.89
2023-04-09T07:04:30.605Z,53.02
2023-04-09T07:06:59.199Z,54.80
2023-04-09T07:09:25.753Z,55.17
2023-04-09T07:11:52.393Z,55.15
2023-04-09T07:14:19.124Z,53.41
2023-04-09T07:16:46.607Z,52.79
2023-04-09T07:19:13.158Z,52.08
2023-04-09T07:21:39.776Z,51.69
2023-04-09T07:24:06.708Z,52.60
2023-04-09T07:26:33.440Z,53.58
2023-04-09T07:28:59.970Z,51.75
2023-04-09T07:31:27.092Z,51.71
2023-04-09T07:33:53.752Z,51.58
2023-04-09T07:36:20.775Z,51.60
2023-04-09T07:38:47.425Z,50.85
2023-04-09T07:41:14.143Z,49.60
2023-04-09T07:43:40.817Z,49.34
2023-04-09T07:46:07.517Z,49.16
2023-04-09T07:48:34.089Z,49.75
2023-04-09T07:51:01.144Z,48.61
2023-04-09T07:53:27.653Z,48.18
2023-04-09T07:55:54.610Z,47.69
2023-04-09T07:58:21.131Z,47.51
2023-04-09T08:00:48.634Z,46.72
2023-04-09T08:03:15.791Z,48.05
2023-04-09T08:05:42.439Z,48.00
2023-04-09T08:08:08.951Z,47.93
2023-04-09T08:10:35.442Z,48.12
2023-04-09T08:13:01.929Z,47.75
2023-04-09T08:15:28.513Z,46.83
2023-04-09T08:17:55.158Z,46.48
2023-04-09T08:20:21.961Z,45.21
2023-04-09T08:22:48.692Z,45.02
2023-04-09T08:25:15.381Z,44.95
2023-04-09T08:27:41.904Z,45.29
2023-04-09T08:30:09.113Z,45.25
2023-04-09T08:32:36.353Z,43.79
2023-04-09T08:35:03.021Z,43.72
2023-04-09T08:37:29.774Z,42.98
2023-04-09T08:39:56.486Z,42.14
2023-04-09T08:42:25.242Z,40.83
2023-04-09T08:44:51.836Z,40.55
2023-04-09T08:47:19.605Z,40.20
2023-04-09T08:49:48.442Z,40.68
2023-04-09T08:52:16.654Z,39.90
2023-04-09T08:54:43.222Z,39.09
2023-04-09T08:57:09.791Z,39.28
2023-04-09T08:59:37.328Z,38.23
2023-04-09T09:02:08.595Z,39.62
2023-04-09T09:04:48.789Z,39.51
2023-04-09T09:07:16.842Z,37.91
2023-04-09T09:09:56.566Z,39.00
2023-04-09T09:12:43.212Z,38.21
2023-04-09T09:15:29.768Z,38.08
2023-04-09T09:17:58.243Z,35.36
2023-04-09T09:20:25.491Z,34.84
2023-04-09T09:22:55.214Z,36.79
2023-04-09T09:25:24.533Z,36.28
2023-04-09T09:27:52.081Z,35.64
2023-04-09T09:30:26.616Z,32.72
2023-04-09T09:33:13.693Z,33.56
2023-04-09T09:35:51.095Z,32.82
2023-04-09T09:38:18.269Z,30.18
2023-04-09T09:40:45.002Z,28.23
2023-04-09T09:43:14.644Z,26.70
2023-04-09T09:45:42.041Z,21.41
2023-04-09T09:48:11.273Z,23.53
2023-04-09T09:50:39.646Z,23.10
2023-04-09T09:53:07.001Z,18.95
2023-04-09T09:55:35.354Z,17.97
2023-04-09T09:58:04.167Z,18.00
2023-04-09T10:00:32.880Z,18.11
2023-04-09T10:03:15.981Z,15.43
2023-04-09T10:05:42.698Z,13.63
2023-04-09T10:08:09.783Z,11.61
2023-04-09T10:10:39.359Z,15.35
2023-04-09T10:13:07.453Z,19.22
2023-04-09T10:15:34.087Z,17.66
2023-04-09T10:18:00.722Z,12.69
2023-04-09T10:20:37.792Z,13.44
2023-04-09T10:23:12.111Z,12.09
2023-04-09T10:25:38.620Z,12.02
2023-04-09T10:28:15.637Z,15.22
2023-04-09T10:30:43.797Z,14.70
2023-04-09T10:33:16.766Z,13.43
2023-04-09T10:35:46.961Z,12.70
2023-04-09T10:38:14.614Z,15.14
2023-04-09T10:40:48.073Z,14.58
2023-04-09T10:43:15.139Z,13.96
2023-04-09T10:45:42.230Z,14.30
2023-04-09T10:48:15.804Z,16.54
2023-04-09T10:50:44.386Z,17.03
2023-04-09T10:53:24.878Z,19.31
2023-04-09T10:55:52.957Z,17.95
2023-04-09T10:58:20.050Z,14.88
2023-04-09T11:00:51.083Z,12.75
2023-04-09T11:03:32.785Z,16.21
2023-04-09T11:06:02.463Z,16.24
2023-04-09T11:08:31.405Z,16.85
2023-04-09T11:10:59.402Z,16.44
2023-04-09T11:13:26.130Z,13.95
2023-04-09T11:15:56.017Z,11.67
2023-04-09T11:18:26.558Z,10.06
2023-04-09T11:21:01.672Z,10.24
2023-04-09T11:23:28.687Z,10.56
2023-04-09T11:25:56.152Z,10.67
2023-04-09T11:28:23.954Z,10.93
2023-04-09T11:30:51.428Z,12.32
2023-04-09T11:33:19.980Z,14.42
2023-04-09T11:35:47.252Z,13.85
2023-04-09T11:38:13.841Z,12.44
2023-04-09T11:40:51.436Z,16.14
2023-04-09T11:43:18.339Z,17.29
2023-04-09T11:45:47.079Z,16.34
2023-04-09T11:48:15.002Z,16.26
2023-04-09T11:50:41.578Z,17.12
2023-04-09T11:53:21.300Z,17.36
2023-04-09T11:55:50.684Z,18.33
2023-04-09T11:58:17.442Z,19.61
2023-04-09T12:00:44.064Z,23.22
2023-04-09T12:03:11.765Z,24.22
2023-04-09T12:05:40.672Z,23.35
2023-04-09T12:08:09.266Z,24.62
2023-04-09T12:10:38.155Z,26.02
2023-04-09T12:13:10.497Z,24.09
2023-04-09T12:15:40.914Z,24.21
2023-04-09T12:18:12.118Z,24.20
2023-04-09T12:20:40.066Z,24.26
2023-04-09T12:23:07.587Z,23.31
2023-04-09T12:25:39.417Z,23.62
2023-04-09T12:28:07.494Z,24.54
2023-04-09T12:30:34.871Z,25.67
2023-04-09T12:33:03.156Z,27.21
2023-04-09T12:35:29.747Z,27.20
2023-04-09T12:37:56.299Z,26.58
2023-04-09T12:40:22.989Z,25.69
2023-04-09T12:42:49.699Z,25.57
2023-04-09T12:45:18.197Z,26.66
2023-04-09T12:47:45.511Z,27.32
2023-04-09T12:50:13.126Z,27.82
2023-04-09T12:52:39.708Z,27.10
2023-04-09T12:55:07.395Z,27.96
2023-04-09T12:57:34.874Z,28.18
2023-04-09T13:00:01.567Z,27.92
2023-04-09T13:02:28.318Z,28.36
2023-04-09T13:04:54.953Z,28.06
2023-04-09T13:07:22.757Z,27.59
2023-04-09T13:09:52.583Z,28.25
2023-04-09T13:12:21.444Z,27.22
2023-04-09T13:14:48.460Z,25.77
2023-04-09T13:17:15.755Z,25.51
2023-04-09T13:19:42.946Z,25.16
2023-04-09T13:22:10.431Z,24.69
2023-04-09T13:24:37.864Z,25.50
2023-04-09T13:27:05.538Z,25.39
2023-04-09T13:29:32.495Z,26.07
2023-04-09T13:32:01.625Z,26.01
2023-04-09T13:34:28.332Z,25.81
2023-04-09T13:36:54.829Z,26.03
2023-04-09T13:39:21.368Z,25.85
2023-04-09T13:41:48.000Z,25.38
2023-04-09T13:44:14.679Z,26.17
2023-04-09T13:46:41.359Z,25.61
2023-04-09T13:49:08.251Z,25.03
2023-04-09T13:51:35.015Z,25.94
2023-04-09T13:54:02.802Z,25.84
2023-04-09T13:56:31.375Z,25.71
2023-04-09T13:58:57.867Z,26.67
2023-04-09T14:01:26.147Z,26.81
2023-04-09T14:03:53.269Z,28.23
2023-04-09T14:06:20.214Z,28.04
2023-04-09T14:08:46.981Z,27.34
2023-04-09T14:11:15.728Z,27.05
2023-04-09T14:13:42.479Z,26.83
2023-04-09T14:16:09.534Z,27.28
2023-04-09T14:18:36.396Z,27.28
2023-04-09T14:21:03.000Z,27.09
2023-04-09T14:23:29.579Z,27.98
2023-04-09T14:25:56.661Z,27.94
2023-04-09T14:28:23.217Z,27.92
2023-04-09T14:30:49.799Z,27.11
2023-04-09T14:33:16.298Z,27.32
2023-04-09T14:35:42.842Z,26.07
2023-04-09T14:38:09.938Z,26.23
2023-04-09T14:40:36.701Z,26.68
2023-04-09T14:43:03.495Z,25.82
2023-04-09T14:45:30.862Z,25.59
2023-04-09T14:47:57.700Z,26.48
2023-04-09T14:50:24.317Z,27.41
2023-04-09T14:52:50.942Z,27.18
2023-04-09T14:55:17.532Z,26.80
2023-04-09T14:57:44.101Z,28.21
2023-04-09T15:00:12.221Z,27.76
2023-04-09T15:02:39.218Z,27.89
2023-04-09T15:05:06.424Z,28.14
2023-04-09T15:07:33.320Z,28.37
2023-04-09T15:09:59.893Z,28.06
2023-04-09T15:12:31.215Z,27.81
2023-04-09T15:14:57.807Z,28.99
2023-04-09T15:17:24.981Z,28.88
2023-04-09T15:19:53.276Z,28.58
2023-04-09T15:22:21.363Z,28.17
2023-04-09T15:24:47.872Z,29.46
2023-04-09T15:27:14.406Z,29.12
2023-04-09T15:29:40.922Z,28.06
2023-04-09T15:32:07.634Z,28.82
2023-04-09T15:34:34.248Z,29.66
2023-04-09T15:37:00.902Z,29.76
2023-04-09T15:39:28.514Z,29.04
2023-04-09T15:41:58.534Z,29.53
2023-04-09T15:44:26.259Z,29.49
2023-04-09T15:46:52.936Z,29.09
2023-04-09T15:49:19.834Z,29.62
2023-04-09T15:51:46.553Z,29.21
2023-04-09T15:54:13.180Z,29.35
2023-04-09T15:56:40.398Z,29.69
2023-04-09T15:59:08.247Z,29.60
2023-04-09T16:01:36.281Z,30.83
2023-04-09T16:04:03.892Z,31.21
2023-04-09T16:06:30.963Z,31.31
2023-04-09T16:08:57.570Z,31.13
2023-04-09T16:11:24.137Z,31.21
2023-04-09T16:13:50.716Z,30.86
2023-04-09T16:16:18.971Z,30.20
2023-04-09T16:18:45.614Z,30.38
2023-04-09T16:21:12.512Z,30.96
2023-04-09T16:23:39.780Z,31.05
2023-04-09T16:26:06.962Z,30.77
2023-04-09T16:28:33.759Z,32.06
2023-04-09T16:31:00.445Z,31.76
2023-04-09T16:33:27.069Z,32.20
2023-04-09T16:35:53.646Z,31.91
2023-04-09T16:38:20.687Z,31.31
2023-04-09T16:40:47.380Z,31.36
2023-04-09T16:43:13.888Z,30.76
2023-04-09T16:45:40.732Z,31.83
2023-04-09T16:48:12.050Z,32.23
2023-04-09T16:50:42.851Z,31.98
2023-04-09T16:53:09.804Z,32.13
2023-04-09T16:55:36.647Z,32.19
2023-04-09T16:58:03.361Z,32.03
2023-04-09T17:00:29.903Z,31.57
2023-04-09T17:02:57.802Z,32.29
2023-04-09T17:05:24.969Z,32.51
2023-04-09T17:07:53.560Z,32.48
2023-04-09T17:10:20.680Z,32.04
2023-04-09T17:12:48.052Z,33.26
2023-04-09T17:15:14.595Z,32.77
2023-04-09T17:17:41.242Z,33.33
2023-04-09T17:20:08.201Z,33.06
2023-04-09T17:22:35.370Z,33.36
2023-04-09T17:25:02.549Z,33.25
2023-04-09T17:27:29.108Z,33.50
2023-04-09T17:29:56.001Z,33.51
2023-04-09T17:32:22.736Z,34.50
2023-04-09T17:34:49.475Z,33.91
2023-04-09T17:37:16.317Z,33.68
2023-04-09T17:39:42.994Z,34.01
2023-04-09T17:42:11.833Z,35.95
2023-04-09T17:44:39.032Z,34.65
2023-04-09T17:47:07.464Z,34.86
2023-04-09T17:49:34.293Z,34.95
2023-04-09T17:52:01.186Z,36.13
2023-04-09T17:54:33.581Z,35.64
2023-04-09T17:57:00.997Z,35.31
2023-04-09T17:59:27.749Z,35.37
2023-04-09T18:01:57.156Z,36.14
2023-04-09T18:04:24.590Z,35.85
2023-04-09T18:06:51.489Z,35.99
2023-04-09T18:09:18.552Z,36.27
2023-04-09T18:11:45.834Z,36.47
2023-04-09T18:14:12.651Z,35.41
2023-04-09T18:16:39.623Z,36.28
2023-04-09T18:19:06.735Z,35.87
2023-04-09T18:21:36.445Z,36.63
2023-04-09T18:24:04.008Z,37.50
2023-04-09T18:26:31.299Z,36.35
2023-04-09T18:29:00.167Z,37.54
2023-04-09T18:31:27.890Z,37.62
2023-04-09T18:33:54.567Z,37.38
2023-04-09T18:36:21.368Z,37.53
2023-04-09T18:38:48.016Z,37.94
2023-04-09T18:41:24.955Z,38.66
2023-04-09T18:43:51.831Z,38.27
2023-04-09T18:46:18.888Z,38.13
2023-04-09T18:48:47.060Z,38.09
2023-04-09T18:51:14.462Z,38.95
2023-04-09T18:53:41.783Z,39.04
2023-04-09T18:56:08.377Z,38.67
2023-04-09T18:58:36.030Z,39.23
2023-04-09T19:01:09.852Z,39.75
2023-04-09T19:03:36.576Z,39.15
2023-04-09T19:06:10.639Z,38.43
2023-04-09T19:08:38.404Z,38.55
2023-04-09T19:11:06.441Z,39.21
2023-04-09T19:13:33.624Z,39.18
2023-04-09T19:16:00.212Z,39.67
2023-04-09T19:18:26.824Z,39.11
2023-04-09T19:20:53.494Z,39.22
2023-04-09T19:23:20.331Z,38.80
2023-04-09T19:25:55.174Z,39.12
2023-04-09T19:28:22.607Z,39.06
2023-04-09T19:30:52.404Z,39.74
2023-04-09T19:33:26.802Z,39.78
2023-04-09T19:35:55.280Z,39.92
2023-04-09T19:38:22.088Z,39.73
2023-04-09T19:40:48.730Z,39.90
2023-04-09T19:43:15.654Z,40.17
2023-04-09T19:45:47.032Z,40.16
2023-04-09T19:48:13.860Z,39.99
2023-04-09T19:50:41.171Z,40.23
2023-04-09T19:53:07.804Z,40.75
2023-04-09T19:55:34.927Z,40.75
2023-04-09T19:58:02.143Z,41.01
2023-04-09T20:00:29.001Z,41.17
2023-04-09T20:02:55.881Z,41.29
2023-04-09T20:05:22.938Z,41.01
2023-04-09T20:07:49.964Z,41.07
2023-04-09T20:10:17.248Z,41.71
2023-04-09T20:12:47.624Z,41.69
2023-04-09T20:15:14.642Z,41.44
2023-04-09T20:17:44.035Z,41.55
2023-04-09T20:20:11.775Z,41.16
2023-04-09T20:22:43.022Z,41.51
2023-04-09T20:25:11.536Z,41.52
2023-04-09T20:27:38.615Z,41.70
2023-04-09T20:30:06.169Z,41.85
2023-04-09T20:32:33.094Z,41.46
2023-04-09T20:34:59.700Z,41.32
2023-04-09T20:37:26.200Z,41.41
2023-04-09T20:39:52.913Z,41.43
2023-04-09T20:42:19.417Z,41.48
2023-04-09T20:44:45.917Z,41.57
2023-04-09T20:47:13.075Z,41.61
2023-04-09T20:49:39.560Z,41.92
2023-04-09T20:52:09.229Z,41.83
2023-04-09T20:54:36.353Z,41.93
2023-04-09T20:57:03.483Z,41.99
2023-04-09T20:59:29.983Z,42.19
2023-04-09T21:01:57.321Z,42.44
2023-04-09T21:04:25.581Z,42.76
2023-04-09T21:06:52.306Z,42.27
2023-04-09T21:09:18.920Z,42.63
2023-04-09T21:11:45.602Z,43.04
2023-04-09T21:14:14.531Z,43.07
2023-04-09T21:16:41.290Z,43.39
2023-04-09T21:19:07.884Z,43.15
2023-04-09T21:21:34.756Z,43.07
2023-04-09T21:24:01.839Z,42.99
2023-04-09T21:26:35.826Z,43.39
2023-04-09T21:29:12.194Z,43.23
2023-04-09T21:31:38.825Z,43.49
2023-04-09T21:34:05.360Z,43.56
2023-04-09T21:36:36.214Z,43.56
2023-04-09T21:39:03.311Z,43.25
2023-04-09T21:41:29.946Z,44.03
2023-04-09T21:43:56.761Z,43.58
2023-04-09T21:46:23.648Z,43.35
2023-04-09T21:48:50.326Z,43.93
2023-04-09T21:51:16.885Z,43.56
2023-04-09T21:53:43.405Z,43.91
2023-04-09T21:56:10.701Z,43.64
2023-04-09T21:58:37.384Z,44.15
2023-04-09T22:01:04.452Z,43.61
2023-04-09T22:03:32.676Z,43.51
2023-04-09T22:05:59.423Z,43.03
2023-04-09T22:08:26.117Z,43.41
2023-04-09T22:10:52.620Z,42.81
2023-04-09T22:13:19.104Z,43.04
2023-04-09T22:15:45.734Z,43.20
2023-04-09T22:18:12.323Z,43.47
2023-04-09T22:20:38.832Z,43.00
2023-04-09T22:23:05.428Z,42.87
2023-04-09T22:25:34.920Z,42.81
2023-04-09T22:28:01.811Z,43.06
2023-04-09T22:30:28.334Z,42.96
2023-04-09T22:32:54.917Z,43.12
2023-04-09T22:35:21.494Z,43.48
2023-04-09T22:37:48.028Z,43.46
2023-04-09T22:40:15.966Z,43.13
2023-04-09T22:42:43.418Z,43.50
2023-04-09T22:45:11.715Z,43.38
2023-04-09T22:47:38.816Z,43.31
2023-04-09T22:50:07.028Z,43.20
2023-04-09T22:52:33.518Z,43.54
2023-04-09T22:55:00.324Z,42.96
2023-04-09T22:57:27.098Z,43.62
2023-04-09T22:59:53.612Z,43.88
2023-04-09T23:02:20.694Z,43.88
2023-04-09T23:04:47.471Z,43.92
2023-04-09T23:07:14.003Z,44.31
2023-04-09T23:09:40.895Z,44.08
2023-04-09T23:12:07.514Z,43.80
2023-04-09T23:14:34.242Z,43.96
2023-04-09T23:17:00.867Z,44.26
2023-04-09T23:19:27.420Z,44.14
2023-04-09T23:21:53.935Z,44.61
2023-04-09T23:24:20.680Z,44.60
2023-04-09T23:26:47.398Z,44.95
2023-04-09T23:29:13.886Z,44.75
2023-04-09T23:31:40.409Z,44.91
2023-04-09T23:34:06.997Z,45.22
2023-04-09T23:36:33.555Z,45.36
2023-04-09T23:39:00.713Z,45.31
2023-04-09T23:41:27.523Z,46.08
2023-04-09T23:43:54.587Z,45.56
2023-04-09T23:46:21.413Z,45.71
2023-04-09T23:48:47.928Z,46.65
2023-04-09T23:51:18.466Z,46.70
2023-04-09T23:53:45.458Z,46.01
2023-04-09T23:56:13.701Z,45.90
2023-04-09T23:58:40.403Z,45.91
